Time;durP1;ratioP1;P1;durP2;ratioP2;P2;SDS_P1;SDS_P2;PMS_P1;PMS_P2;Temp;Humidity;BMP_temperature;BMP_pressure;BME280_temperature;BME280_humidity;BME280_pressure;Samples;Min_cycle;Max_cycle;Signal;HPM_P1;HPM_P2
2022/07/04 00:00:28;;;;;;;0.70;0.70;;;23.60;62.00;;;;;;5105995;28;20020;-45
2022/07/04 00:02:54;;;;;;;1.00;0.82;;;23.50;61.50;;;;;;5101426;28;20028;-47
2022/07/04 00:05:21;;;;;;;0.95;0.85;;;23.60;62.30;;;;;;5085666;28;20080;-47
2022/07/04 00:07:48;;;;;;;;;;;23.50;61.70;;;;;;5071425;28;20029;-50
2022/07/04 00:10:18;;;;;;;1.58;0.80;;;23.50;61.90;;;;;;5079076;28;19919;-46
2022/07/04 00:12:44;;;;;;;1.05;0.80;;;23.50;61.70;;;;;;5084881;28;20033;-51
2022/07/04 00:15:11;;;;;;;0.85;0.80;;;23.50;61.30;;;;;;5082268;28;20043;-52
2022/07/04 00:17:37;;;;;;;0.70;0.70;;;23.50;60.80;;;;;;5085124;28;20485;-47
2022/07/04 00:20:04;;;;;;;0.85;0.73;;;23.50;61.10;;;;;;5085738;28;20071;-47
2022/07/04 00:22:31;;;;;;;0.98;0.80;;;23.40;60.70;;;;;;5083410;28;20047;-50
2022/07/04 00:24:57;;;;;;;1.08;0.98;;;23.40;60.70;;;;;;5093141;28;20032;-48
2022/07/04 00:27:23;;;;;;;1.30;1.20;;;23.40;60.90;;;;;;5105470;28;20020;-52
2022/07/04 00:29:49;;;;;;;1.10;1.00;;;23.30;61.00;;;;;;5092710;28;21373;-50
2022/07/04 00:32:16;;;;;;;1.13;1.02;;;23.30;61.30;;;;;;5085351;28;20117;-48
2022/07/04 00:34:42;;;;;;;1.38;1.17;;;23.30;60.60;;;;;;5079049;28;20049;-49
2022/07/04 00:37:08;;;;;;;0.85;0.85;;;23.30;60.60;;;;;;5079679;28;20095;-49
2022/07/04 00:39:34;;;;;;;1.23;0.98;;;23.30;60.40;;;;;;5084822;28;20047;-45
2022/07/04 00:42:00;;;;;;;1.45;1.05;;;23.20;60.40;;;;;;5084630;28;20503;-49
2022/07/04 00:44:26;;;;;;;1.17;1.00;;;23.20;60.90;;;;;;5085119;28;20082;-48
2022/07/04 00:46:52;;;;;;;0.93;0.80;;;23.20;61.00;;;;;;5084983;28;20046;-46
2022/07/04 00:49:19;;;;;;;1.10;1.00;;;23.20;61.10;;;;;;5083981;28;20028;-50
2022/07/04 00:52:05;;;;;;;0.98;0.90;;;23.20;60.90;;;;;;5084816;28;20489;-52
2022/07/04 00:54:31;;;;;;;1.05;0.95;;;23.20;60.60;;;;;;5002123;28;20034;-48
2022/07/04 00:56:58;;;;;;;0.85;0.85;;;23.10;60.40;;;;;;5002573;28;20038;-48
2022/07/04 00:59:24;;;;;;;0.93;0.93;;;23.10;60.60;;;;;;5002697;28;20126;-49
2022/07/04 01:01:50;;;;;;;0.90;0.90;;;23.10;60.60;;;;;;5002664;28;20034;-47
2022/07/04 01:04:16;;;;;;;1.85;1.10;;;23.10;60.80;;;;;;5001740;28;20030;-47
2022/07/04 01:06:44;;;;;;;0.80;0.80;;;23.00;60.50;;;;;;5002596;28;20181;-45
2022/07/04 01:09:10;;;;;;;1.00;1.00;;;23.00;60.70;;;;;;5002231;28;20034;-45
2022/07/04 01:11:36;;;;;;;1.10;1.00;;;22.90;60.80;;;;;;5002159;28;20045;-48
2022/07/04 01:14:04;;;;;;;1.30;0.90;;;22.90;60.50;;;;;;5002125;28;20022;-45
2022/07/04 01:16:31;;;;;;;1.02;0.82;;;22.90;60.30;;;;;;5002204;28;20637;-46
2022/07/04 01:18:57;;;;;;;1.05;0.90;;;22.90;60.20;;;;;;5001615;28;20050;-44
2022/07/04 01:21:23;;;;;;;1.55;0.90;;;22.90;60.20;;;;;;5002467;28;20806;-49
2022/07/04 01:23:49;;;;;;;0.98;0.98;;;22.80;60.00;;;;;;5001696;28;20038;-46
2022/07/04 01:26:15;;;;;;;1.10;1.00;;;22.80;59.90;;;;;;5001921;28;20102;-45
2022/07/04 01:28:41;;;;;;;1.35;0.90;;;22.80;60.20;;;;;;5001682;28;20065;-45
2022/07/04 01:31:07;;;;;;;1.00;0.95;;;22.80;59.70;;;;;;5026353;28;20046;-45
2022/07/04 01:33:33;;;;;;;1.67;0.90;;;22.80;59.90;;;;;;5077848;28;20081;-44
2022/07/04 01:36:00;;;;;;;1.95;0.80;;;22.80;59.60;;;;;;5063847;28;20067;-44
2022/07/04 01:38:26;;;;;;;1.52;1.00;;;22.70;60.10;;;;;;5099331;28;20078;-45
2022/07/04 01:40:52;;;;;;;1.02;0.93;;;22.70;60.30;;;;;;5090282;28;20027;-45
2022/07/04 01:43:18;;;;;;;2.20;0.73;;;22.70;60.20;;;;;;5104084;28;20036;-44
2022/07/04 01:45:44;;;;;;;1.25;0.80;;;22.60;60.20;;;;;;5085397;28;20028;-43
2022/07/04 01:48:11;;;;;;;0.80;0.80;;;22.60;60.30;;;;;;5078732;28;20043;-45
2022/07/04 01:50:37;;;;;;;2.20;0.73;;;22.60;60.20;;;;;;5076159;28;20424;-43
2022/07/04 01:53:04;;;;;;;0.80;0.80;;;22.60;60.30;;;;;;5075942;28;20056;-44
2022/07/04 01:55:30;;;;;;;1.50;0.98;;;22.50;59.90;;;;;;5067669;28;20128;-43
2022/07/04 01:57:56;;;;;;;1.27;1.00;;;22.60;60.30;;;;;;5071968;28;20021;-44
2022/07/04 02:03:07;;;;;;;0.82;0.75;;;22.50;60.20;;;;;;5064969;28;20051;-45
2022/07/04 02:05:33;;;;;;;1.83;1.05;;;22.50;60.00;;;;;;5083557;28;20088;-44
2022/07/04 02:07:59;;;;;;;2.15;0.70;;;22.40;59.90;;;;;;5067703;28;20025;-43
2022/07/04 02:10:25;;;;;;;0.80;0.80;;;22.40;59.90;;;;;;5082964;28;20050;-43
2022/07/04 02:13:01;;;;;;;1.17;0.90;;;22.40;59.80;;;;;;5071735;28;20029;-44
2022/07/04 02:15:37;;;;;;;0.90;0.70;;;22.40;59.80;;;;;;5076567;28;20056;-44
2022/07/04 02:18:04;;;;;;;1.02;0.93;;;22.40;59.80;;;;;;5087090;28;20059;-44
2022/07/04 02:20:30;;;;;;;1.25;0.90;;;22.30;59.90;;;;;;5087136;28;20027;-45
2022/07/04 02:22:56;;;;;;;0.85;0.80;;;22.30;59.90;;;;;;5103573;28;20052;-46
2022/07/04 02:25:23;;;;;;;1.00;1.00;;;22.30;59.90;;;;;;5087275;28;20675;-44
2022/07/04 02:27:49;;;;;;;0.88;0.88;;;22.20;59.70;;;;;;5082993;28;20024;-45
2022/07/04 02:30:15;;;;;;;0.73;0.73;;;22.20;60.20;;;;;;5082706;28;20024;-44
2022/07/04 02:32:41;;;;;;;2.05;0.80;;;22.20;59.70;;;;;;5083148;28;20035;-49
2022/07/04 02:35:08;;;;;;;0.80;0.80;;;22.20;59.60;;;;;;5073608;28;20047;-46
2022/07/04 02:37:34;;;;;;;0.80;0.80;;;22.20;59.70;;;;;;5089828;28;20762;-44
2022/07/04 02:40:00;;;;;;;0.90;0.80;;;22.10;59.80;;;;;;5082353;28;20040;-44
2022/07/04 02:42:30;;;;;;;2.25;0.90;;;22.10;59.90;;;;;;5082473;28;20044;-45
2022/07/04 02:44:56;;;;;;;1.92;1.08;;;22.10;59.80;;;;;;5081518;28;20047;-46
2022/07/04 02:47:23;;;;;;;1.17;0.90;;;22.10;59.80;;;;;;5080048;28;20016;-44
2022/07/04 02:49:49;;;;;;;1.15;1.05;;;22.00;59.70;;;;;;5072026;28;20035;-46
2022/07/04 02:52:15;;;;;;;1.20;1.10;;;22.00;59.70;;;;;;5073116;28;20017;-45
2022/07/04 02:54:41;;;;;;;1.10;1.00;;;22.00;59.60;;;;;;5071405;28;20029;-45
2022/07/04 02:57:08;;;;;;;1.10;1.00;;;22.00;59.50;;;;;;5063354;28;20102;-44
2022/07/04 02:59:34;;;;;;;2.00;1.13;;;22.00;59.50;;;;;;5067645;28;20183;-44
2022/07/04 03:02:00;;;;;;;1.40;1.30;;;21.90;59.30;;;;;;5063274;28;20108;-45
2022/07/04 03:04:26;;;;;;;0.82;0.82;;;21.90;59.10;;;;;;5059958;28;20050;-50
2022/07/04 03:06:53;;;;;;;1.40;1.20;;;21.90;59.10;;;;;;5062933;28;20024;-46
2022/07/04 03:09:19;;;;;;;1.30;1.20;;;21.90;59.10;;;;;;5058863;28;20028;-46
2022/07/04 03:11:45;;;;;;;1.40;1.30;;;21.80;59.10;;;;;;5060695;28;20586;-44
2022/07/04 03:14:11;;;;;;;1.33;1.13;;;21.80;59.20;;;;;;5060098;28;20064;-44
2022/07/04 03:16:37;;;;;;;1.60;1.50;;;21.80;59.40;;;;;;5068754;28;20033;-43
2022/07/04 03:19:03;;;;;;;1.40;1.30;;;21.80;59.40;;;;;;5072478;28;20044;-45
2022/07/04 03:21:30;;;;;;;1.42;1.33;;;21.70;59.50;;;;;;5075344;28;20062;-44
2022/07/04 03:23:59;;;;;;;1.60;1.50;;;21.70;59.40;;;;;;5077858;28;20123;-47
2022/07/04 03:26:31;;;;;;;1.65;1.55;;;21.70;59.40;;;;;;5072950;28;20082;-44
2022/07/04 03:28:57;;;;;;;1.63;1.40;;;21.70;59.30;;;;;;5081252;28;20021;-44
2022/07/04 03:31:24;;;;;;;1.80;1.70;;;21.70;59.20;;;;;;5081975;28;20095;-44
2022/07/04 03:33:50;;;;;;;1.70;1.60;;;21.60;59.20;;;;;;5073610;28;20092;-44
2022/07/04 03:36:17;;;;;;;1.92;1.50;;;21.60;59.30;;;;;;5064278;28;20063;-46
2022/07/04 03:38:43;;;;;;;1.98;1.60;;;21.60;59.40;;;;;;5081882;28;20029;-44
2022/07/04 03:41:09;;;;;;;1.58;1.48;;;21.60;59.50;;;;;;5099585;28;20028;-45
2022/07/04 03:43:36;;;;;;;1.80;1.70;;;21.50;60.10;;;;;;5101270;28;20107;-45
2022/07/04 03:46:02;;;;;;;1.63;1.52;;;21.50;59.50;;;;;;5102403;28;20467;-43
2022/07/04 03:48:28;;;;;;;1.70;1.60;;;21.50;59.70;;;;;;5075960;28;20032;-43
2022/07/04 03:50:54;;;;;;;1.88;1.63;;;21.50;59.70;;;;;;5070107;28;20052;-46
2022/07/04 03:53:20;;;;;;;2.17;1.98;;;21.50;59.70;;;;;;5074407;28;20025;-47
2022/07/04 03:55:47;;;;;;;2.30;2.10;;;21.40;59.60;;;;;;5073285;28;20127;-44
2022/07/04 03:58:13;;;;;;;1.83;1.73;;;21.40;59.50;;;;;;5075237;28;20017;-45
2022/07/04 04:00:39;;;;;;;1.95;1.85;;;21.40;59.40;;;;;;5077414;28;20078;-45
2022/07/04 04:05:26;;;;;;;1.90;1.70;;;21.40;59.30;;;;;;5069440;28;20045;-44
2022/07/04 04:05:51;;;;;;;2.20;2.00;;;21.40;59.40;;;;;;5070109;28;20029;-45
2022/07/04 04:08:17;;;;;;;2.10;1.90;;;21.30;59.50;;;;;;5069673;28;20032;-48
2022/07/04 04:10:43;;;;;;;2.03;1.83;;;21.30;59.60;;;;;;5071524;28;20036;-47
2022/07/04 04:13:09;;;;;;;2.50;2.30;;;21.30;59.70;;;;;;5072492;28;20021;-45
2022/07/04 04:15:35;;;;;;;1.90;1.80;;;21.20;59.70;;;;;;5069221;28;20032;-47
2022/07/04 04:18:02;;;;;;;2.40;2.20;;;21.20;59.60;;;;;;5083522;28;20031;-47
2022/07/04 04:20:28;;;;;;;1.80;1.70;;;21.20;59.50;;;;;;5085604;28;20049;-45
2022/07/04 04:22:54;;;;;;;2.42;2.22;;;21.20;59.40;;;;;;5084910;28;20051;-46
2022/07/04 04:25:20;;;;;;;2.60;2.40;;;21.20;59.40;;;;;;5082266;28;20036;-48
2022/07/04 04:27:46;;;;;;;2.40;2.20;;;21.10;59.20;;;;;;5085172;28;20093;-45
2022/07/04 04:30:12;;;;;;;2.38;2.17;;;21.10;59.30;;;;;;5086667;28;20020;-48
2022/07/04 04:32:39;;;;;;;2.10;1.90;;;21.10;59.40;;;;;;5092907;28;20048;-48
2022/07/04 04:35:05;;;;;;;2.28;2.08;;;21.10;59.50;;;;;;5094131;28;20136;-49
2022/07/04 04:37:31;;;;;;;2.50;2.30;;;21.10;59.60;;;;;;5092861;28;20047;-47
2022/07/04 04:39:57;;;;;;;2.15;1.95;;;21.00;59.70;;;;;;5084988;28;20052;-47
2022/07/04 04:42:23;;;;;;;2.35;2.15;;;21.00;59.70;;;;;;5084432;28;20112;-48
2022/07/04 04:44:49;;;;;;;2.33;2.13;;;21.00;59.60;;;;;;5084935;28;20030;-47
2022/07/04 04:47:15;;;;;;;2.33;2.13;;;21.00;59.60;;;;;;5078753;28;20033;-46
2022/07/04 04:49:42;;;;;;;2.55;2.35;;;20.90;59.50;;;;;;5064985;28;20470;-46
2022/07/04 04:52:09;;;;;;;2.50;2.30;;;20.90;59.40;;;;;;5079107;28;20020;-46
2022/07/04 04:54:35;;;;;;;3.17;2.35;;;20.90;59.40;;;;;;5083705;28;20925;-48
2022/07/04 04:57:01;;;;;;;2.60;2.40;;;20.90;59.40;;;;;;5083251;28;20112;-44
2022/07/04 04:59:29;;;;;;;2.60;2.40;;;20.90;59.60;;;;;;5084780;28;20021;-46
2022/07/04 05:01:56;;;;;;;2.97;2.42;;;20.80;59.80;;;;;;5100142;28;20483;-46
2022/07/04 05:04:22;;;;;;;3.20;2.70;;;20.80;60.20;;;;;;5075523;28;20056;-45
2022/07/04 05:06:48;;;;;;;3.10;2.80;;;20.80;60.30;;;;;;5084455;28;20043;-44
2022/07/04 05:09:14;;;;;;;2.75;2.35;;;20.80;61.00;;;;;;5093435;28;20049;-44
2022/07/04 05:11:40;;;;;;;2.50;2.30;;;20.80;61.10;;;;;;5084595;28;20046;-44
2022/07/04 05:14:25;;;;;;;2.55;2.35;;;20.70;61.10;;;;;;5084157;28;20024;-46
2022/07/04 05:16:51;;;;;;;2.75;2.55;;;20.70;61.30;;;;;;5084163;28;20070;-48
2022/07/04 05:19:17;;;;;;;3.03;2.67;;;20.70;61.40;;;;;;5066065;28;20033;-46
2022/07/04 05:21:43;;;;;;;3.03;2.67;;;20.70;61.30;;;;;;5070840;28;20028;-44
2022/07/04 05:24:11;;;;;;;2.90;2.60;;;20.70;61.40;;;;;;5084036;28;20167;-47
2022/07/04 05:26:37;;;;;;;;;;;20.70;61.60;;;;;;5084746;28;20028;-46
2022/07/04 05:29:03;;;;;;;4.40;2.97;;;20.70;61.60;;;;;;5084045;28;19911;-46
2022/07/04 05:31:29;;;;;;;3.20;2.90;;;20.60;61.80;;;;;;5084415;28;20028;-46
2022/07/04 05:33:55;;;;;;;3.08;2.88;;;20.60;62.20;;;;;;5075425;28;20032;-49
2022/07/04 05:36:25;;;;;;;3.42;3.13;;;20.70;62.60;;;;;;5080383;28;20040;-46
2022/07/04 05:38:51;;;;;;;3.42;3.13;;;20.60;62.70;;;;;;5071304;28;20023;-49
2022/07/04 05:41:17;;;;;;;3.50;3.20;;;20.70;63.10;;;;;;5083713;28;20036;-48
2022/07/04 05:43:43;;;;;;;3.40;3.10;;;20.60;63.20;;;;;;5084037;28;20064;-46
2022/07/04 05:46:10;;;;;;;3.38;2.90;;;20.60;63.40;;;;;;5083528;28;20048;-45
2022/07/04 05:48:36;;;;;;;3.58;3.28;;;20.60;63.50;;;;;;5082987;28;20020;-43
2022/07/04 05:51:05;;;;;;;3.10;2.90;;;20.60;63.60;;;;;;5083727;28;20031;-45
2022/07/04 05:53:32;;;;;;;3.40;3.10;;;20.60;63.80;;;;;;5082936;28;20722;-44
2022/07/04 05:55:58;;;;;;;3.60;3.30;;;20.70;64.10;;;;;;5083380;28;20128;-45
2022/07/04 05:58:24;;;;;;;3.38;3.08;;;20.70;64.20;;;;;;5083427;28;20046;-45
2022/07/04 06:00:50;;;;;;;3.58;3.28;;;20.70;64.50;;;;;;5092622;28;20032;-47
2022/07/04 06:03:16;;;;;;;4.72;3.50;;;20.70;64.70;;;;;;5079119;28;20027;-45
2022/07/04 06:05:42;;;;;;;3.85;3.40;;;20.70;65.00;;;;;;5062827;28;20029;-45
2022/07/04 06:08:08;;;;;;;3.30;3.05;;;20.70;65.20;;;;;;5073665;28;20401;-44
2022/07/04 06:10:34;;;;;;;4.22;3.85;;;20.70;65.30;;;;;;5082923;28;20036;-44
2022/07/04 06:13:01;;;;;;;4.20;3.80;;;20.80;65.50;;;;;;5088956;28;20027;-47
2022/07/04 06:15:27;;;;;;;3.83;3.53;;;20.80;65.60;;;;;;5090912;28;20036;-43
2022/07/04 06:17:53;;;;;;;4.13;3.72;;;20.80;65.60;;;;;;5076860;28;20022;-44
2022/07/04 06:20:19;;;;;;;3.67;3.33;;;20.80;65.50;;;;;;5063143;28;20036;-46
2022/07/04 06:22:47;;;;;;;4.35;3.63;;;20.80;65.50;;;;;;5062668;28;20024;-46
2022/07/04 06:25:14;;;;;;;3.63;3.05;;;20.80;65.50;;;;;;5073809;28;20021;-45
2022/07/04 06:27:40;;;;;;;3.80;3.50;;;20.90;65.60;;;;;;5080979;28;20049;-45
2022/07/04 06:30:07;;;;;;;4.13;3.72;;;20.90;65.70;;;;;;5092225;28;20056;-44
2022/07/04 06:32:49;;;;;;;4.00;3.60;;;20.90;65.70;;;;;;5102408;28;20556;-45
2022/07/04 06:38:07;;;;;;;3.80;3.50;;;20.90;65.80;;;;;;5082127;28;20032;-45
2022/07/04 06:40:34;;;;;;;5.20;3.72;;;20.90;65.70;;;;;;5082480;28;20028;-44
2022/07/04 06:43:00;;;;;;;4.65;4.20;;;21.00;65.80;;;;;;5082351;28;20405;-45
2022/07/04 06:45:26;;;;;;;3.92;3.63;;;21.00;65.70;;;;;;5082723;28;20036;-46
2022/07/04 06:47:52;;;;;;;4.07;3.78;;;21.00;65.80;;;;;;5080268;28;20021;-45
2022/07/04 06:50:18;;;;;;;3.67;3.38;;;21.00;65.70;;;;;;5074248;28;20051;-46
2022/07/04 06:52:45;;;;;;;4.13;3.72;;;21.00;65.70;;;;;;5075636;28;20083;-44
2022/07/04 06:55:11;;;;;;;4.20;3.80;;;21.00;65.70;;;;;;5073960;28;20035;-45
2022/07/04 06:57:37;;;;;;;4.60;3.88;;;21.00;65.70;;;;;;5073338;28;20028;-46
2022/07/04 07:00:07;;;;;;;4.30;3.90;;;21.10;65.90;;;;;;5073737;28;20041;-46
2022/07/04 07:02:36;;;;;;;4.13;3.67;;;21.10;65.90;;;;;;5071687;28;20083;-45
2022/07/04 07:05:03;;;;;;;4.32;3.95;;;21.10;65.90;;;;;;5075064;28;20043;-49
2022/07/04 07:07:29;;;;;;;6.00;4.20;;;21.10;65.90;;;;;;5074157;28;20021;-46
2022/07/04 07:09:55;;;;;;;4.40;4.00;;;21.10;65.90;;;;;;5074174;28;20047;-45
2022/07/04 07:12:22;;;;;;;4.30;3.90;;;21.20;66.00;;;;;;5070770;28;20023;-48
2022/07/04 07:14:51;;;;;;;4.27;3.83;;;21.20;65.90;;;;;;5073873;28;20024;-46
2022/07/04 07:17:17;;;;;;;4.40;4.00;;;21.20;65.80;;;;;;5076587;28;20270;-45
2022/07/04 07:19:43;;;;;;;4.38;3.97;;;21.20;65.80;;;;;;5082115;28;20033;-43
2022/07/04 07:22:10;;;;;;;4.47;4.07;;;21.20;65.90;;;;;;5099663;28;20517;-45
2022/07/04 07:24:36;;;;;;;4.60;4.20;;;21.20;65.90;;;;;;5094906;28;20268;-46
2022/07/04 07:27:03;;;;;;;4.70;4.30;;;21.20;66.10;;;;;;5081858;28;20035;-46
2022/07/04 07:29:29;;;;;;;4.70;4.20;;;21.30;66.40;;;;;;5081902;28;20033;-47
2022/07/04 07:31:55;;;;;;;4.18;3.78;;;21.30;66.40;;;;;;5081875;28;20032;-45
2022/07/04 07:34:21;;;;;;;4.50;4.10;;;21.30;67.10;;;;;;5080603;28;20106;-49
2022/07/04 07:36:48;;;;;;;4.50;4.10;;;21.30;66.40;;;;;;5081706;28;20064;-48
2022/07/04 07:39:14;;;;;;;4.50;4.10;;;21.30;66.40;;;;;;5082553;28;20032;-47
2022/07/04 07:41:40;;;;;;;4.35;3.95;;;21.30;66.30;;;;;;5081998;28;20480;-46
2022/07/04 07:44:06;;;;;;;5.37;3.93;;;21.40;66.20;;;;;;5089934;28;20056;-48
2022/07/04 07:46:32;;;;;;;4.20;3.80;;;21.40;66.20;;;;;;5099084;28;20265;-48
2022/07/04 07:48:59;;;;;;;4.80;4.30;;;21.40;66.10;;;;;;5081648;28;20114;-45
2022/07/04 07:51:25;;;;;;;4.90;4.40;;;21.40;66.20;;;;;;5083626;28;20035;-46
2022/07/04 07:53:51;;;;;;;4.95;4.45;;;21.40;66.10;;;;;;5085192;28;20039;-45
2022/07/04 07:56:17;;;;;;;4.70;4.30;;;21.40;66.10;;;;;;5090968;28;20066;-46
2022/07/04 07:58:43;;;;;;;5.05;4.20;;;21.40;66.20;;;;;;5095224;28;20052;-44
2022/07/04 08:01:09;;;;;;;4.80;4.07;;;21.50;66.30;;;;;;5105899;28;20024;-45
2022/07/04 08:06:20;;;;;;;4.82;4.40;;;21.50;66.30;;;;;;5082828;28;20027;-45
2022/07/04 08:08:46;;;;;;;4.90;4.43;;;21.50;66.20;;;;;;5081367;28;20036;-45
2022/07/04 08:11:12;;;;;;;4.82;4.35;;;21.50;66.30;;;;;;5085023;28;20025;-44
2022/07/04 08:13:39;;;;;;;4.32;4.03;;;21.50;66.30;;;;;;5081690;28;20052;-44
2022/07/04 08:16:05;;;;;;;4.73;4.23;;;21.50;66.20;;;;;;5095761;28;20036;-44
2022/07/04 08:18:32;;;;;;;4.80;4.40;;;21.60;66.20;;;;;;5087158;28;20020;-46
2022/07/04 08:20:58;;;;;;;4.20;3.80;;;21.60;66.10;;;;;;5084888;28;20025;-47
2022/07/04 08:23:25;;;;;;;4.50;4.10;;;21.60;66.10;;;;;;5085175;28;20039;-44
2022/07/04 08:25:51;;;;;;;5.05;4.55;;;21.60;66.20;;;;;;5085123;28;20025;-46
2022/07/04 08:28:17;;;;;;;4.72;4.32;;;21.60;66.20;;;;;;5085874;28;20479;-50
2022/07/04 08:30:43;;;;;;;4.93;4.53;;;21.60;66.20;;;;;;5105383;28;20543;-45
2022/07/04 08:33:09;;;;;;;4.68;4.28;;;21.60;66.10;;;;;;5090177;28;20028;-45
2022/07/04 08:35:35;;;;;;;4.80;4.40;;;21.60;66.00;;;;;;5084771;28;20036;-46
2022/07/04 08:38:01;;;;;;;4.65;3.95;;;21.60;65.90;;;;;;5084530;28;20041;-47
2022/07/04 08:40:28;;;;;;;4.40;4.00;;;21.60;65.80;;;;;;5084320;28;20031;-46
2022/07/04 08:42:55;;;;;;;4.45;4.05;;;21.70;65.90;;;;;;5084745;28;20094;-49
2022/07/04 08:45:28;;;;;;;4.50;4.10;;;21.70;65.80;;;;;;5087427;28;20067;-47
2022/07/04 08:48:01;;;;;;;4.72;4.30;;;21.70;65.80;;;;;;5091761;28;20055;-45
2022/07/04 08:50:32;;;;;;;4.57;4.18;;;21.70;65.80;;;;;;5100142;28;20032;-48
2022/07/04 08:53:19;;;;;;;4.70;4.18;;;21.70;65.80;;;;;;5104743;28;20020;-44
2022/07/04 08:58:30;;;;;;;4.82;4.30;;;21.80;65.90;;;;;;5083042;28;20028;-47
2022/07/04 09:01:04;;;;;;;5.20;4.13;;;21.70;65.90;;;;;;5082794;28;20040;-45
2022/07/04 09:03:31;;;;;;;4.90;4.43;;;21.80;65.90;;;;;;5079493;28;20063;-47
2022/07/04 09:05:57;;;;;;;4.50;4.10;;;21.80;65.80;;;;;;5068864;28;20494;-45
2022/07/04 09:08:24;;;;;;;4.87;4.47;;;21.80;65.80;;;;;;5084197;28;20028;-46
2022/07/04 09:10:50;;;;;;;4.53;4.13;;;21.80;65.70;;;;;;5084135;28;21133;-44
2022/07/04 09:13:19;;;;;;;4.95;4.47;;;21.80;65.70;;;;;;5084366;28;20036;-46
2022/07/04 09:15:47;;;;;;;4.70;4.30;;;21.80;65.70;;;;;;5083957;28;20124;-45
2022/07/04 09:18:39;;;;;;;4.53;4.15;;;21.80;65.80;;;;;;5077183;28;20039;-46
2022/07/04 09:21:07;;;;;;;4.32;4.03;;;21.90;65.90;;;;;;5081945;28;20033;-46
2022/07/04 09:23:35;;;;;;;4.30;3.90;;;21.90;66.00;;;;;;5084820;28;20035;-45
2022/07/04 09:26:15;;;;;;;4.13;3.83;;;21.90;66.10;;;;;;5076087;28;20129;-47
2022/07/04 09:28:56;;;;;;;4.80;4.30;;;21.90;66.10;;;;;;5074705;28;20020;-46
2022/07/04 09:31:27;;;;;;;4.47;4.13;;;21.90;66.10;;;;;;5075318;28;20029;-45
2022/07/04 09:34:06;;;;;;;4.45;4.07;;;21.90;66.00;;;;;;5076436;28;20029;-47
2022/07/04 09:36:33;;;;;;;5.43;3.97;;;21.90;66.00;;;;;;5076647;28;20037;-45
2022/07/04 09:39:18;;;;;;;4.85;4.40;;;21.90;66.00;;;;;;5074349;28;20028;-45
2022/07/04 09:41:58;;;;;;;4.63;4.22;;;21.90;66.60;;;;;;5068794;28;20040;-46
2022/07/04 09:44:26;;;;;;;4.20;3.90;;;21.90;65.80;;;;;;5071318;28;20051;-44
2022/07/04 09:46:52;;;;;;;4.43;4.03;;;21.90;65.80;;;;;;5074061;28;20032;-44
2022/07/04 09:49:19;;;;;;;4.03;3.70;;;22.00;65.80;;;;;;5073756;28;20052;-46
2022/07/04 09:51:47;;;;;;;4.63;4.22;;;22.00;65.90;;;;;;5078262;28;20039;-44
2022/07/04 09:54:22;;;;;;;4.82;4.30;;;22.00;66.00;;;;;;5072475;28;20056;-48
2022/07/04 09:56:50;;;;;;;4.63;4.22;;;22.00;66.00;;;;;;5084569;28;20036;-44
2022/07/04 09:59:17;;;;;;;3.92;3.63;;;22.00;66.00;;;;;;5103531;28;20027;-45
2022/07/04 10:01:43;;;;;;;4.63;4.23;;;22.00;66.00;;;;;;5103268;28;20062;-46
2022/07/04 10:04:09;;;;;;;4.80;4.40;;;22.00;65.90;;;;;;5088838;28;20367;-48
2022/07/04 10:06:38;;;;;;;4.90;4.50;;;22.00;65.90;;;;;;5067737;28;20474;-45
2022/07/04 10:09:15;;;;;;;4.47;3.85;;;22.00;65.80;;;;;;5081986;28;20486;-44
2022/07/04 10:11:43;;;;;;;4.47;4.07;;;22.00;65.70;;;;;;5096864;28;20058;-44
2022/07/04 10:14:10;;;;;;;4.50;4.10;;;22.10;65.70;;;;;;5090342;28;20817;-44
2022/07/04 10:16:37;;;;;;;4.50;4.10;;;22.00;65.60;;;;;;5101366;28;20044;-43
2022/07/04 10:19:03;;;;;;;4.13;3.80;;;22.10;65.70;;;;;;5067763;28;20060;-44
2022/07/04 10:21:29;;;;;;;4.47;4.07;;;22.10;65.70;;;;;;5062417;28;20048;-45
2022/07/04 10:23:55;;;;;;;4.80;4.40;;;22.10;65.70;;;;;;5063191;28;20028;-46
2022/07/04 10:26:24;;;;;;;4.53;4.15;;;22.10;65.70;;;;;;5083007;28;20682;-45
2022/07/04 10:28:54;;;;;;;5.10;4.45;;;22.10;65.70;;;;;;5083406;28;20103;-44
2022/07/04 10:31:22;;;;;;;4.10;3.70;;;22.10;64.70;;;;;;5082998;28;20039;-45
2022/07/04 10:33:48;;;;;;;4.28;3.95;;;22.10;63.40;;;;;;5075156;28;20024;-44
2022/07/04 10:36:19;;;;;;;4.00;3.70;;;22.10;63.10;;;;;;5061118;28;20037;-44
2022/07/04 10:38:52;;;;;;;4.55;4.15;;;22.10;63.20;;;;;;5063944;28;20025;-43
2022/07/04 10:41:20;;;;;;;4.53;4.10;;;22.10;63.30;;;;;;5082196;28;20040;-43
2022/07/04 10:43:56;;;;;;;4.40;4.00;;;22.10;63.40;;;;;;5082311;28;20053;-46
2022/07/04 10:46:30;;;;;;;4.82;4.32;;;22.10;63.60;;;;;;5101863;28;20028;-47
2022/07/04 10:49:14;;;;;;;4.30;4.00;;;22.10;63.80;;;;;;5076277;28;20040;-45
2022/07/04 10:51:51;;;;;;;4.60;4.20;;;22.10;64.10;;;;;;5066420;28;20028;-44
2022/07/04 10:54:21;;;;;;;4.17;3.87;;;22.10;64.30;;;;;;5072381;28;20121;-48
2022/07/04 10:56:57;;;;;;;4.32;3.95;;;22.10;64.40;;;;;;5073190;28;20036;-42
2022/07/04 10:59:28;;;;;;;4.50;4.10;;;22.10;64.60;;;;;;5075492;28;20090;-43
2022/07/04 11:02:06;;;;;;;4.40;4.00;;;22.10;64.60;;;;;;5071530;28;20021;-43
2022/07/04 11:05:00;;;;;;;4.00;3.70;;;22.20;64.70;;;;;;5067418;28;20091;-44
2022/07/04 11:07:41;;;;;;;4.20;3.80;;;22.10;64.60;;;;;;5073736;28;20060;-45
2022/07/04 11:10:15;;;;;;;4.43;4.03;;;22.10;64.70;;;;;;5074972;28;20122;-46
2022/07/04 11:12:56;;;;;;;3.92;3.63;;;22.10;63.90;;;;;;5075947;28;20021;-46
2022/07/04 11:15:28;;;;;;;4.00;3.70;;;22.10;62.60;;;;;;5071335;28;20060;-46
2022/07/04 11:18:13;;;;;;;4.18;3.78;;;22.20;62.50;;;;;;5071532;28;20020;-46
2022/07/04 11:20:43;;;;;;;3.42;3.13;;;22.20;62.80;;;;;;5062097;28;20060;-46
2022/07/04 11:23:23;;;;;;;3.75;3.42;;;22.10;63.00;;;;;;5076333;28;20021;-47
2022/07/04 11:25:50;;;;;;;3.92;3.63;;;22.20;63.40;;;;;;5081985;28;20036;-45
2022/07/04 11:28:25;;;;;;;4.10;3.80;;;22.10;63.50;;;;;;5082029;28;20036;-46
2022/07/04 11:30:59;;;;;;;4.00;3.70;;;22.10;63.60;;;;;;5082114;28;20036;-46
2022/07/04 11:33:31;;;;;;;3.88;3.58;;;22.10;63.70;;;;;;5076534;28;20109;-45
2022/07/04 11:36:21;;;;;;;3.83;3.53;;;22.10;63.80;;;;;;5078870;28;20038;-45
2022/07/04 11:38:47;;;;;;;3.60;3.30;;;22.10;63.80;;;;;;5065129;28;20025;-45
2022/07/04 11:46:42;;;;;;;4.03;3.72;;;22.20;64.10;;;;;;5081182;28;20084;-45
2022/07/04 11:49:11;;;;;;;3.95;3.65;;;22.20;64.10;;;;;;5077293;28;20029;-44
2022/07/04 11:51:46;;;;;;;3.90;3.60;;;22.20;64.20;;;;;;5070981;28;20024;-46
2022/07/04 11:54:12;;;;;;;4.05;3.75;;;22.20;64.30;;;;;;5072335;28;20055;-45
2022/07/04 11:56:38;;;;;;;3.70;3.40;;;22.20;64.40;;;;;;5074000;28;20040;-48
2022/07/04 11:59:12;;;;;;;4.00;3.70;;;22.20;64.60;;;;;;5074306;28;20048;-44
2022/07/04 12:01:39;;;;;;;4.68;3.47;;;22.20;64.60;;;;;;5070554;28;20949;-45
2022/07/04 12:04:18;;;;;;;3.80;3.50;;;22.20;64.60;;;;;;5071512;28;20116;-46
2022/07/04 12:06:46;;;;;;;3.65;3.35;;;22.20;64.60;;;;;;5070059;28;20044;-46
2022/07/04 12:09:12;;;;;;;3.35;3.05;;;22.20;64.50;;;;;;5077500;28;20021;-46
2022/07/04 12:11:58;;;;;;;3.38;3.17;;;22.20;63.30;;;;;;5070161;28;20028;-45
2022/07/04 12:14:25;;;;;;;3.38;3.08;;;22.20;62.30;;;;;;5074771;28;20084;-45
2022/07/04 12:17:18;;;;;;;3.38;3.17;;;22.20;62.40;;;;;;5073940;28;20036;-46
2022/07/04 12:20:01;;;;;;;3.35;3.15;;;22.20;62.80;;;;;;5061749;28;20036;-47
2022/07/04 12:22:34;;;;;;;3.90;3.40;;;22.20;63.10;;;;;;5061528;28;20029;-45
2022/07/04 12:25:00;;;;;;;3.65;3.35;;;22.20;63.50;;;;;;5063895;28;20066;-44
2022/07/04 12:27:26;;;;;;;3.87;3.57;;;22.20;63.80;;;;;;5073148;28;20122;-46
2022/07/04 12:29:53;;;;;;;2.50;2.33;;;22.20;64.00;;;;;;5072684;28;20035;-44
2022/07/04 12:32:19;;;;;;;3.40;3.15;;;22.20;64.00;;;;;;5071243;28;20035;-46
2022/07/04 12:34:46;;;;;;;3.72;3.42;;;22.20;64.10;;;;;;5069937;28;20036;-46
2022/07/04 12:37:13;;;;;;;3.53;3.23;;;22.20;64.10;;;;;;5072911;28;20059;-44
2022/07/04 12:39:41;;;;;;;3.42;3.13;;;22.20;64.30;;;;;;5073593;28;20023;-46
2022/07/04 12:42:13;;;;;;;3.42;3.13;;;22.20;64.30;;;;;;5085487;28;20032;-46
2022/07/04 12:44:40;;;;;;;3.40;3.10;;;22.30;64.40;;;;;;5070089;28;20037;-46
2022/07/04 12:47:06;;;;;;;3.80;3.50;;;22.20;64.30;;;;;;5087816;28;20024;-45
2022/07/04 12:49:33;;;;;;;3.03;2.83;;;22.20;63.20;;;;;;5102674;28;20020;-45
2022/07/04 12:52:10;;;;;;;3.13;2.92;;;22.30;62.40;;;;;;5084922;28;20059;-45
2022/07/04 12:54:36;;;;;;;3.40;3.10;;;22.20;62.00;;;;;;5084835;28;20024;-46
2022/07/04 12:57:06;;;;;;;3.28;2.97;;;22.20;62.30;;;;;;5084449;28;20062;-45
2022/07/04 12:59:32;;;;;;;3.35;3.05;;;22.20;62.70;;;;;;5084629;28;20490;-46
2022/07/04 13:01:58;;;;;;;3.47;3.23;;;22.20;63.00;;;;;;5101883;28;20092;-45
2022/07/04 13:04:25;;;;;;;3.33;3.13;;;22.20;63.30;;;;;;5093038;28;20032;-46
2022/07/04 13:06:51;;;;;;;3.53;3.22;;;22.20;63.50;;;;;;5076331;28;20025;-45
2022/07/04 13:09:17;;;;;;;3.53;3.22;;;22.20;63.70;;;;;;5075462;28;21103;-44